sensor_id;sensor_type;location;lat;lon;timestamp;P1;durP1;ratioP1;P2;durP2;ratioP2
76447;SDS011;65284;51.040;13.722;2023-06-22T00:01:19;12.30;;;8.07;;
76447;SDS011;65284;51.040;13.722;2023-06-22T00:03:47;11.38;;;7.68;;
76447;SDS011;65284;51.040;13.722;2023-06-22T00:06:14;10.18;;;6.97;;
76447;SDS011;65284;51.040;13.722;2023-06-22T00:08:40;10.82;;;7.75;;
76447;SDS011;65284;51.040;13.722;2023-06-22T00:11:07;10.45;;;7.28;;
76447;SDS011;65284;51.040;13.722;2023-06-22T00:13:33;11.85;;;8.02;;
76447;SDS011;65284;51.040;13.722;2023-06-22T00:16:00;12.57;;;8.52;;
76447;SDS011;65284;51.040;13.722;2023-06-22T00:18:26;11.50;;;8.70;;
76447;SDS011;65284;51.040;13.722;2023-06-22T00:20:54;10.30;;;7.78;;
76447;SDS011;65284;51.040;13.722;2023-06-22T00:23:23;11.18;;;7.65;;
76447;SDS011;65284;51.040;13.722;2023-06-22T00:25:50;8.93;;;7.38;;
76447;SDS011;65284;51.040;13.722;2023-06-22T00:28:17;11.82;;;7.93;;
76447;SDS011;65284;51.040;13.722;2023-06-22T00:30:43;10.32;;;7.78;;
76447;SDS011;65284;51.040;13.722;2023-06-22T00:33:10;11.00;;;7.70;;
76447;SDS011;65284;51.040;13.722;2023-06-22T00:35:36;9.43;;;7.38;;
76447;SDS011;65284;51.040;13.722;2023-06-22T00:38:02;11.80;;;7.90;;
76447;SDS011;65284;51.040;13.722;2023-06-22T00:40:31;11.05;;;7.55;;
76447;SDS011;65284;51.040;13.722;2023-06-22T00:42:58;11.65;;;7.90;;
76447;SDS011;65284;51.040;13.722;2023-06-22T00:45:26;12.70;;;8.35;;
76447;SDS011;65284;51.040;13.722;2023-06-22T00:47:53;10.60;;;7.97;;
76447;SDS011;65284;51.040;13.722;2023-06-22T00:52:53;11.30;;;8.15;;
76447;SDS011;65284;51.040;13.722;2023-06-22T00:55:24;12.30;;;9.63;;
76447;SDS011;65284;51.040;13.722;2023-06-22T00:57:52;12.43;;;9.02;;
76447;SDS011;65284;51.040;13.722;2023-06-22T01:00:23;11.55;;;7.65;;
76447;SDS011;65284;51.040;13.722;2023-06-22T01:02:51;13.90;;;9.40;;
76447;SDS011;65284;51.040;13.722;2023-06-22T01:05:22;15.48;;;11.75;;
76447;SDS011;65284;51.040;13.722;2023-06-22T01:07:52;15.30;;;10.60;;
76447;SDS011;65284;51.040;13.722;2023-06-22T01:10:45;14.73;;;9.55;;
76447;SDS011;65284;51.040;13.722;2023-06-22T01:15:55;11.73;;;8.18;;
76447;SDS011;65284;51.040;13.722;2023-06-22T01:18:29;12.40;;;8.38;;
76447;SDS011;65284;51.040;13.722;2023-06-22T01:20:57;10.45;;;8.10;;
76447;SDS011;65284;51.040;13.722;2023-06-22T01:26:20;10.90;;;7.90;;
76447;SDS011;65284;51.040;13.722;2023-06-22T01:28:55;10.50;;;8.10;;
76447;SDS011;65284;51.040;13.722;2023-06-22T01:31:24;11.00;;;8.32;;
76447;SDS011;65284;51.040;13.722;2023-06-22T01:33:57;10.68;;;8.10;;
76447;SDS011;65284;51.040;13.722;2023-06-22T01:36:26;12.15;;;8.00;;
76447;SDS011;65284;51.040;13.722;2023-06-22T01:38:53;12.65;;;8.20;;
76447;SDS011;65284;51.040;13.722;2023-06-22T01:41:20;10.10;;;8.20;;
76447;SDS011;65284;51.040;13.722;2023-06-22T01:43:48;11.15;;;7.88;;
76447;SDS011;65284;51.040;13.722;2023-06-22T01:46:15;11.38;;;7.93;;
76447;SDS011;65284;51.040;13.722;2023-06-22T01:48:41;12.70;;;8.35;;
76447;SDS011;65284;51.040;13.722;2023-06-22T01:51:08;10.88;;;8.00;;
76447;SDS011;65284;51.040;13.722;2023-06-22T01:53:34;10.15;;;7.90;;
76447;SDS011;65284;51.040;13.722;2023-06-22T01:56:01;11.50;;;8.55;;
76447;SDS011;65284;51.040;13.722;2023-06-22T01:58:28;10.50;;;7.82;;
76447;SDS011;65284;51.040;13.722;2023-06-22T02:00:57;10.65;;;8.32;;
76447;SDS011;65284;51.040;13.722;2023-06-22T02:03:30;12.90;;;9.00;;
76447;SDS011;65284;51.040;13.722;2023-06-22T02:06:10;10.70;;;8.38;;
76447;SDS011;65284;51.040;13.722;2023-06-22T02:08:54;10.68;;;8.32;;
76447;SDS011;65284;51.040;13.722;2023-06-22T02:11:23;11.80;;;8.50;;
76447;SDS011;65284;51.040;13.722;2023-06-22T02:13:53;12.20;;;8.45;;
76447;SDS011;65284;51.040;13.722;2023-06-22T02:16:21;13.93;;;8.63;;
76447;SDS011;65284;51.040;13.722;2023-06-22T02:18:51;10.13;;;8.00;;
76447;SDS011;65284;51.040;13.722;2023-06-22T02:21:21;10.90;;;8.02;;
76447;SDS011;65284;51.040;13.722;2023-06-22T02:23:48;10.52;;;7.93;;
76447;SDS011;65284;51.040;13.722;2023-06-22T02:26:16;12.52;;;8.05;;
76447;SDS011;65284;51.040;13.722;2023-06-22T02:28:43;11.90;;;8.23;;
76447;SDS011;65284;51.040;13.722;2023-06-22T02:31:10;11.32;;;8.50;;
76447;SDS011;65284;51.040;13.722;2023-06-22T02:33:37;13.05;;;8.15;;
76447;SDS011;65284;51.040;13.722;2023-06-22T02:36:04;11.75;;;8.32;;
76447;SDS011;65284;51.040;13.722;2023-06-22T02:38:31;12.48;;;8.70;;
76447;SDS011;65284;51.040;13.722;2023-06-22T02:41:00;11.13;;;7.95;;
76447;SDS011;65284;51.040;13.722;2023-06-22T02:43:27;12.95;;;8.35;;
76447;SDS011;65284;51.040;13.722;2023-06-22T02:45:54;10.70;;;8.32;;
76447;SDS011;65284;51.040;13.722;2023-06-22T02:48:21;13.75;;;9.02;;
76447;SDS011;65284;51.040;13.722;2023-06-22T02:50:47;13.00;;;8.65;;
76447;SDS011;65284;51.040;13.722;2023-06-22T02:53:14;13.55;;;9.23;;
76447;SDS011;65284;51.040;13.722;2023-06-22T02:55:40;14.35;;;9.05;;
76447;SDS011;65284;51.040;13.722;2023-06-22T02:58:07;13.13;;;8.50;;
76447;SDS011;65284;51.040;13.722;2023-06-22T03:00:34;12.18;;;8.50;;
76447;SDS011;65284;51.040;13.722;2023-06-22T03:03:01;10.75;;;8.60;;
76447;SDS011;65284;51.040;13.722;2023-06-22T03:05:27;11.55;;;8.88;;
76447;SDS011;65284;51.040;13.722;2023-06-22T03:07:54;12.63;;;8.45;;
76447;SDS011;65284;51.040;13.722;2023-06-22T03:10:20;12.60;;;8.68;;
76447;SDS011;65284;51.040;13.722;2023-06-22T03:12:47;10.88;;;8.35;;
76447;SDS011;65284;51.040;13.722;2023-06-22T03:15:13;12.00;;;8.63;;
76447;SDS011;65284;51.040;13.722;2023-06-22T03:17:40;11.88;;;8.82;;
76447;SDS011;65284;51.040;13.722;2023-06-22T03:20:07;12.48;;;8.45;;
76447;SDS011;65284;51.040;13.722;2023-06-22T03:22:36;10.95;;;8.02;;
76447;SDS011;65284;51.040;13.722;2023-06-22T03:25:03;11.40;;;7.78;;
76447;SDS011;65284;51.040;13.722;2023-06-22T03:27:30;11.70;;;8.88;;
76447;SDS011;65284;51.040;13.722;2023-06-22T03:29:57;12.02;;;8.68;;
76447;SDS011;65284;51.040;13.722;2023-06-22T03:32:23;12.80;;;8.65;;
76447;SDS011;65284;51.040;13.722;2023-06-22T03:34:50;12.75;;;8.88;;
76447;SDS011;65284;51.040;13.722;2023-06-22T03:37:16;13.30;;;8.73;;
76447;SDS011;65284;51.040;13.722;2023-06-22T03:39:43;15.93;;;8.70;;
76447;SDS011;65284;51.040;13.722;2023-06-22T03:42:10;11.68;;;8.77;;
76447;SDS011;65284;51.040;13.722;2023-06-22T03:44:36;10.82;;;8.30;;
76447;SDS011;65284;51.040;13.722;2023-06-22T03:47:03;11.15;;;8.20;;
76447;SDS011;65284;51.040;13.722;2023-06-22T03:49:30;12.50;;;8.35;;
76447;SDS011;65284;51.040;13.722;2023-06-22T03:51:56;16.05;;;12.27;;
76447;SDS011;65284;51.040;13.722;2023-06-22T03:54:23;14.75;;;9.77;;
76447;SDS011;65284;51.040;13.722;2023-06-22T03:56:49;14.40;;;9.90;;
76447;SDS011;65284;51.040;13.722;2023-06-22T03:59:16;13.50;;;9.25;;
76447;SDS011;65284;51.040;13.722;2023-06-22T04:01:42;12.27;;;9.07;;
76447;SDS011;65284;51.040;13.722;2023-06-22T04:04:09;11.93;;;8.88;;
76447;SDS011;65284;51.040;13.722;2023-06-22T04:06:35;13.45;;;8.48;;
76447;SDS011;65284;51.040;13.722;2023-06-22T04:09:02;12.77;;;7.50;;
76447;SDS011;65284;51.040;13.722;2023-06-22T04:11:29;11.85;;;8.73;;
76447;SDS011;65284;51.040;13.722;2023-06-22T04:13:55;12.48;;;8.52;;
76447;SDS011;65284;51.040;13.722;2023-06-22T04:16:22;13.18;;;8.77;;
76447;SDS011;65284;51.040;13.722;2023-06-22T04:18:48;13.63;;;9.48;;
76447;SDS011;65284;51.040;13.722;2023-06-22T04:21:15;14.82;;;9.52;;
76447;SDS011;65284;51.040;13.722;2023-06-22T04:23:42;10.95;;;8.10;;
76447;SDS011;65284;51.040;13.722;2023-06-22T04:26:09;13.55;;;8.88;;
76447;SDS011;65284;51.040;13.722;2023-06-22T04:28:35;14.35;;;8.98;;
76447;SDS011;65284;51.040;13.722;2023-06-22T04:31:02;12.68;;;8.35;;
76447;SDS011;65284;51.040;13.722;2023-06-22T04:33:29;15.30;;;9.57;;
76447;SDS011;65284;51.040;13.722;2023-06-22T04:35:55;12.50;;;8.98;;
76447;SDS011;65284;51.040;13.722;2023-06-22T04:38:23;12.05;;;8.68;;
76447;SDS011;65284;51.040;13.722;2023-06-22T04:40:50;15.95;;;8.82;;
76447;SDS011;65284;51.040;13.722;2023-06-22T04:43:18;11.80;;;8.80;;
76447;SDS011;65284;51.040;13.722;2023-06-22T04:45:45;11.57;;;8.80;;
76447;SDS011;65284;51.040;13.722;2023-06-22T04:48:11;11.10;;;7.78;;
76447;SDS011;65284;51.040;13.722;2023-06-22T04:50:42;14.98;;;8.65;;
76447;SDS011;65284;51.040;13.722;2023-06-22T04:53:11;12.27;;;8.95;;
76447;SDS011;65284;51.040;13.722;2023-06-22T04:55:39;12.80;;;9.13;;
76447;SDS011;65284;51.040;13.722;2023-06-22T04:58:11;15.60;;;9.13;;
76447;SDS011;65284;51.040;13.722;2023-06-22T05:00:39;13.27;;;9.30;;
76447;SDS011;65284;51.040;13.722;2023-06-22T05:03:05;13.93;;;9.63;;
76447;SDS011;65284;51.040;13.722;2023-06-22T05:05:45;12.73;;;9.18;;
76447;SDS011;65284;51.040;13.722;2023-06-22T05:08:11;15.32;;;9.18;;
76447;SDS011;65284;51.040;13.722;2023-06-22T05:10:39;13.52;;;9.63;;
76447;SDS011;65284;51.040;13.722;2023-06-22T05:13:25;15.75;;;10.27;;
76447;SDS011;65284;51.040;13.722;2023-06-22T05:15:52;13.27;;;9.27;;
76447;SDS011;65284;51.040;13.722;2023-06-22T05:18:28;13.55;;;9.88;;
76447;SDS011;65284;51.040;13.722;2023-06-22T05:20:55;16.60;;;10.02;;
76447;SDS011;65284;51.040;13.722;2023-06-22T05:23:22;12.88;;;9.60;;
76447;SDS011;65284;51.040;13.722;2023-06-22T05:25:48;12.82;;;9.30;;
76447;SDS011;65284;51.040;13.722;2023-06-22T05:28:15;15.20;;;9.32;;
76447;SDS011;65284;51.040;13.722;2023-06-22T05:30:41;13.25;;;9.13;;
76447;SDS011;65284;51.040;13.722;2023-06-22T05:33:08;13.68;;;9.27;;
76447;SDS011;65284;51.040;13.722;2023-06-22T05:35:34;16.58;;;10.00;;
76447;SDS011;65284;51.040;13.722;2023-06-22T05:38:01;16.38;;;10.00;;
76447;SDS011;65284;51.040;13.722;2023-06-22T05:40:27;13.68;;;10.73;;
76447;SDS011;65284;51.040;13.722;2023-06-22T05:42:54;14.38;;;10.38;;
76447;SDS011;65284;51.040;13.722;2023-06-22T05:45:21;14.85;;;10.07;;
76447;SDS011;65284;51.040;13.722;2023-06-22T05:47:47;15.27;;;9.30;;
76447;SDS011;65284;51.040;13.722;2023-06-22T05:50:14;13.40;;;9.00;;
76447;SDS011;65284;51.040;13.722;2023-06-22T05:52:40;12.73;;;9.25;;
76447;SDS011;65284;51.040;13.722;2023-06-22T05:55:07;14.73;;;9.65;;
76447;SDS011;65284;51.040;13.722;2023-06-22T05:57:33;14.82;;;9.30;;
76447;SDS011;65284;51.040;13.722;2023-06-22T06:00:00;14.73;;;9.20;;
76447;SDS011;65284;51.040;13.722;2023-06-22T06:02:26;14.52;;;9.30;;
76447;SDS011;65284;51.040;13.722;2023-06-22T06:04:53;16.38;;;10.88;;
76447;SDS011;65284;51.040;13.722;2023-06-22T06:07:20;18.25;;;10.18;;
76447;SDS011;65284;51.040;13.722;2023-06-22T06:09:47;14.88;;;10.27;;
76447;SDS011;65284;51.040;13.722;2023-06-22T06:12:14;12.90;;;9.20;;
76447;SDS011;65284;51.040;13.722;2023-06-22T06:14:40;11.90;;;8.60;;
76447;SDS011;65284;51.040;13.722;2023-06-22T06:17:07;12.70;;;7.82;;
76447;SDS011;65284;51.040;13.722;2023-06-22T06:19:33;14.43;;;9.48;;
76447;SDS011;65284;51.040;13.722;2023-06-22T06:22:00;13.07;;;8.32;;
76447;SDS011;65284;51.040;13.722;2023-06-22T06:24:26;10.68;;;8.13;;
76447;SDS011;65284;51.040;13.722;2023-06-22T06:26:53;12.13;;;8.27;;
76447;SDS011;65284;51.040;13.722;2023-06-22T06:29:19;14.93;;;8.70;;
76447;SDS011;65284;51.040;13.722;2023-06-22T06:31:45;13.32;;;7.95;;
76447;SDS011;65284;51.040;13.722;2023-06-22T06:34:12;11.70;;;7.95;;
76447;SDS011;65284;51.040;13.722;2023-06-22T06:36:38;12.93;;;8.70;;
76447;SDS011;65284;51.040;13.722;2023-06-22T06:39:05;11.10;;;8.25;;
76447;SDS011;65284;51.040;13.722;2023-06-22T06:41:31;13.63;;;8.27;;
76447;SDS011;65284;51.040;13.722;2023-06-22T06:43:58;15.52;;;8.90;;
76447;SDS011;65284;51.040;13.722;2023-06-22T06:46:24;15.05;;;9.07;;
76447;SDS011;65284;51.040;13.722;2023-06-22T06:48:51;13.65;;;9.60;;
76447;SDS011;65284;51.040;13.722;2023-06-22T06:51:17;12.68;;;8.43;;
76447;SDS011;65284;51.040;13.722;2023-06-22T06:53:44;11.50;;;9.25;;
76447;SDS011;65284;51.040;13.722;2023-06-22T06:56:10;14.82;;;9.23;;
76447;SDS011;65284;51.040;13.722;2023-06-22T06:58:40;13.35;;;9.45;;
76447;SDS011;65284;51.040;13.722;2023-06-22T07:01:08;16.15;;;12.32;;
76447;SDS011;65284;51.040;13.722;2023-06-22T07:03:35;16.23;;;11.77;;
76447;SDS011;65284;51.040;13.722;2023-06-22T07:06:01;19.55;;;12.02;;
76447;SDS011;65284;51.040;13.722;2023-06-22T07:08:27;15.20;;;9.90;;
76447;SDS011;65284;51.040;13.722;2023-06-22T07:10:55;14.15;;;9.88;;
76447;SDS011;65284;51.040;13.722;2023-06-22T07:13:21;15.73;;;9.35;;
76447;SDS011;65284;51.040;13.722;2023-06-22T07:15:48;10.98;;;8.82;;
76447;SDS011;65284;51.040;13.722;2023-06-22T07:18:14;12.43;;;9.68;;
76447;SDS011;65284;51.040;13.722;2023-06-22T07:20:41;13.00;;;9.80;;
76447;SDS011;65284;51.040;13.722;2023-06-22T07:23:07;17.00;;;10.73;;
76447;SDS011;65284;51.040;13.722;2023-06-22T07:25:34;14.43;;;10.43;;
76447;SDS011;65284;51.040;13.722;2023-06-22T07:28:01;13.48;;;10.98;;
76447;SDS011;65284;51.040;13.722;2023-06-22T07:30:30;13.32;;;9.75;;
76447;SDS011;65284;51.040;13.722;2023-06-22T07:32:59;15.75;;;10.52;;
76447;SDS011;65284;51.040;13.722;2023-06-22T07:35:30;14.25;;;9.85;;
76447;SDS011;65284;51.040;13.722;2023-06-22T07:37:57;11.45;;;9.18;;
76447;SDS011;65284;51.040;13.722;2023-06-22T07:40:23;11.43;;;8.30;;
76447;SDS011;65284;51.040;13.722;2023-06-22T07:42:50;12.73;;;8.82;;
76447;SDS011;65284;51.040;13.722;2023-06-22T07:45:17;11.98;;;8.75;;
76447;SDS011;65284;51.040;13.722;2023-06-22T07:47:44;13.55;;;9.40;;
76447;SDS011;65284;51.040;13.722;2023-06-22T07:50:11;13.55;;;9.52;;
76447;SDS011;65284;51.040;13.722;2023-06-22T07:52:37;14.93;;;9.48;;
76447;SDS011;65284;51.040;13.722;2023-06-22T07:55:04;18.15;;;11.25;;
76447;SDS011;65284;51.040;13.722;2023-06-22T07:57:30;13.25;;;10.25;;
76447;SDS011;65284;51.040;13.722;2023-06-22T08:00:01;13.80;;;10.30;;
76447;SDS011;65284;51.040;13.722;2023-06-22T08:02:30;12.55;;;9.35;;
76447;SDS011;65284;51.040;13.722;2023-06-22T08:04:57;12.45;;;9.05;;
76447;SDS011;65284;51.040;13.722;2023-06-22T08:07:40;13.10;;;8.95;;
76447;SDS011;65284;51.040;13.722;2023-06-22T08:10:11;13.60;;;9.27;;
76447;SDS011;65284;51.040;13.722;2023-06-22T08:12:39;12.90;;;9.38;;
76447;SDS011;65284;51.040;13.722;2023-06-22T08:15:06;11.50;;;8.65;;
76447;SDS011;65284;51.040;13.722;2023-06-22T08:17:33;10.95;;;8.45;;
76447;SDS011;65284;51.040;13.722;2023-06-22T08:20:00;11.32;;;7.72;;
76447;SDS011;65284;51.040;13.722;2023-06-22T08:22:26;10.57;;;8.10;;
76447;SDS011;65284;51.040;13.722;2023-06-22T08:24:53;9.70;;;7.97;;
76447;SDS011;65284;51.040;13.722;2023-06-22T08:27:19;9.77;;;7.70;;
76447;SDS011;65284;51.040;13.722;2023-06-22T08:29:47;10.20;;;7.70;;
76447;SDS011;65284;51.040;13.722;2023-06-22T08:32:14;10.38;;;8.18;;
76447;SDS011;65284;51.040;13.722;2023-06-22T08:34:40;9.73;;;7.57;;
76447;SDS011;65284;51.040;13.722;2023-06-22T08:37:10;9.50;;;7.22;;
76447;SDS011;65284;51.040;13.722;2023-06-22T08:39:36;10.25;;;7.18;;
76447;SDS011;65284;51.040;13.722;2023-06-22T08:42:03;10.45;;;7.63;;
76447;SDS011;65284;51.040;13.722;2023-06-22T08:44:30;9.07;;;6.50;;
76447;SDS011;65284;51.040;13.722;2023-06-22T08:46:57;9.40;;;6.80;;
76447;SDS011;65284;51.040;13.722;2023-06-22T08:49:23;8.80;;;6.78;;
76447;SDS011;65284;51.040;13.722;2023-06-22T08:51:49;8.18;;;6.22;;
76447;SDS011;65284;51.040;13.722;2023-06-22T08:54:18;9.10;;;6.82;;
76447;SDS011;65284;51.040;13.722;2023-06-22T08:56:44;8.55;;;6.68;;
76447;SDS011;65284;51.040;13.722;2023-06-22T08:59:11;7.97;;;6.32;;
76447;SDS011;65284;51.040;13.722;2023-06-22T09:01:37;7.68;;;6.47;;
76447;SDS011;65284;51.040;13.722;2023-06-22T09:04:04;10.30;;;6.70;;
76447;SDS011;65284;51.040;13.722;2023-06-22T09:06:32;9.32;;;7.95;;
76447;SDS011;65284;51.040;13.722;2023-06-22T09:08:58;9.60;;;7.40;;
76447;SDS011;65284;51.040;13.722;2023-06-22T09:11:25;8.23;;;7.20;;
76447;SDS011;65284;51.040;13.722;2023-06-22T09:13:52;9.10;;;6.32;;
76447;SDS011;65284;51.040;13.722;2023-06-22T09:16:19;8.32;;;6.55;;
76447;SDS011;65284;51.040;13.722;2023-06-22T09:18:49;8.40;;;6.45;;
76447;SDS011;65284;51.040;13.722;2023-06-22T09:21:15;10.70;;;8.13;;
76447;SDS011;65284;51.040;13.722;2023-06-22T09:23:42;9.63;;;7.53;;
76447;SDS011;65284;51.040;13.722;2023-06-22T09:26:08;8.73;;;6.65;;
76447;SDS011;65284;51.040;13.722;2023-06-22T09:28:34;9.50;;;6.50;;
76447;SDS011;65284;51.040;13.722;2023-06-22T09:31:01;9.00;;;6.88;;
76447;SDS011;65284;51.040;13.722;2023-06-22T09:33:27;9.57;;;7.53;;
76447;SDS011;65284;51.040;13.722;2023-06-22T09:35:54;9.23;;;7.15;;
76447;SDS011;65284;51.040;13.722;2023-06-22T09:38:20;12.35;;;7.65;;
76447;SDS011;65284;51.040;13.722;2023-06-22T09:40:47;21.55;;;7.32;;
76447;SDS011;65284;51.040;13.722;2023-06-22T09:43:13;12.57;;;7.80;;
76447;SDS011;65284;51.040;13.722;2023-06-22T09:45:40;9.55;;;6.68;;
76447;SDS011;65284;51.040;13.722;2023-06-22T09:48:07;7.97;;;7.18;;
76447;SDS011;65284;51.040;13.722;2023-06-22T09:50:35;8.75;;;6.32;;
76447;SDS011;65284;51.040;13.722;2023-06-22T09:53:03;10.00;;;6.57;;
76447;SDS011;65284;51.040;13.722;2023-06-22T09:55:29;9.57;;;6.60;;
76447;SDS011;65284;51.040;13.722;2023-06-22T09:57:56;9.40;;;6.97;;
76447;SDS011;65284;51.040;13.722;2023-06-22T10:00:23;8.57;;;6.78;;
76447;SDS011;65284;51.040;13.722;2023-06-22T10:02:49;11.02;;;6.88;;
76447;SDS011;65284;51.040;13.722;2023-06-22T10:05:16;9.15;;;7.07;;
76447;SDS011;65284;51.040;13.722;2023-06-22T10:07:43;9.57;;;6.93;;
76447;SDS011;65284;51.040;13.722;2023-06-22T10:10:11;9.52;;;7.18;;
76447;SDS011;65284;51.040;13.722;2023-06-22T10:12:41;8.93;;;7.20;;
76447;SDS011;65284;51.040;13.722;2023-06-22T10:15:10;8.50;;;6.97;;
76447;SDS011;65284;51.040;13.722;2023-06-22T10:17:38;7.50;;;6.25;;
76447;SDS011;65284;51.040;13.722;2023-06-22T10:20:05;9.73;;;6.43;;
76447;SDS011;65284;51.040;13.722;2023-06-22T10:22:41;9.40;;;6.50;;
76447;SDS011;65284;51.040;13.722;2023-06-22T10:25:09;8.52;;;6.95;;
76447;SDS011;65284;51.040;13.722;2023-06-22T10:27:39;10.40;;;6.88;;
76447;SDS011;65284;51.040;13.722;2023-06-22T10:30:08;8.48;;;6.63;;
76447;SDS011;65284;51.040;13.722;2023-06-22T10:32:37;9.77;;;6.57;;
76447;SDS011;65284;51.040;13.722;2023-06-22T10:35:04;13.00;;;9.38;;
76447;SDS011;65284;51.040;13.722;2023-06-22T10:37:31;29.88;;;24.75;;
76447;SDS011;65284;51.040;13.722;2023-06-22T10:39:58;43.13;;;35.65;;
76447;SDS011;65284;51.040;13.722;2023-06-22T10:42:25;22.42;;;18.23;;
76447;SDS011;65284;51.040;13.722;2023-06-22T10:44:51;12.35;;;10.70;;
76447;SDS011;65284;51.040;13.722;2023-06-22T10:47:17;9.82;;;6.97;;
76447;SDS011;65284;51.040;13.722;2023-06-22T10:49:44;8.85;;;6.50;;
76447;SDS011;65284;51.040;13.722;2023-06-22T10:52:10;9.75;;;7.22;;
76447;SDS011;65284;51.040;13.722;2023-06-22T10:54:37;11.85;;;6.82;;
76447;SDS011;65284;51.040;13.722;2023-06-22T10:57:04;8.77;;;6.72;;
76447;SDS011;65284;51.040;13.722;2023-06-22T10:59:30;10.07;;;7.50;;
76447;SDS011;65284;51.040;13.722;2023-06-22T11:01:58;8.30;;;6.60;;
76447;SDS011;65284;51.040;13.722;2023-06-22T11:04:24;8.27;;;6.80;;
76447;SDS011;65284;51.040;13.722;2023-06-22T11:06:51;8.55;;;7.50;;
76447;SDS011;65284;51.040;13.722;2023-06-22T11:09:17;10.07;;;6.78;;
76447;SDS011;65284;51.040;13.722;2023-06-22T11:11:52;9.18;;;7.07;;
76447;SDS011;65284;51.040;13.722;2023-06-22T11:14:19;10.10;;;6.75;;
76447;SDS011;65284;51.040;13.722;2023-06-22T11:16:48;8.90;;;6.40;;
76447;SDS011;65284;51.040;13.722;2023-06-22T11:19:14;9.75;;;7.05;;
76447;SDS011;65284;51.040;13.722;2023-06-22T11:21:41;9.45;;;6.90;;
76447;SDS011;65284;51.040;13.722;2023-06-22T11:24:07;8.88;;;7.45;;
76447;SDS011;65284;51.040;13.722;2023-06-22T11:26:34;8.70;;;6.95;;
76447;SDS011;65284;51.040;13.722;2023-06-22T11:29:01;9.10;;;7.20;;
76447;SDS011;65284;51.040;13.722;2023-06-22T11:31:31;8.60;;;7.22;;
76447;SDS011;65284;51.040;13.722;2023-06-22T11:33:59;9.43;;;7.15;;
76447;SDS011;65284;51.040;13.722;2023-06-22T11:36:26;13.43;;;7.13;;
76447;SDS011;65284;51.040;13.722;2023-06-22T11:38:53;9.68;;;6.50;;
76447;SDS011;65284;51.040;13.722;2023-06-22T11:41:19;9.27;;;6.60;;
76447;SDS011;65284;51.040;13.722;2023-06-22T11:43:45;9.07;;;7.40;;
76447;SDS011;65284;51.040;13.722;2023-06-22T11:46:12;8.35;;;6.50;;
76447;SDS011;65284;51.040;13.722;2023-06-22T11:48:38;8.65;;;7.13;;
76447;SDS011;65284;51.040;13.722;2023-06-22T11:51:05;11.13;;;7.15;;
76447;SDS011;65284;51.040;13.722;2023-06-22T11:53:32;8.93;;;6.88;;
76447;SDS011;65284;51.040;13.722;2023-06-22T11:55:59;9.20;;;7.20;;
76447;SDS011;65284;51.040;13.722;2023-06-22T11:58:27;10.02;;;6.95;;
76447;SDS011;65284;51.040;13.722;2023-06-22T12:00:53;7.60;;;6.50;;
76447;SDS011;65284;51.040;13.722;2023-06-22T12:03:21;8.15;;;6.72;;
76447;SDS011;65284;51.040;13.722;2023-06-22T12:05:49;8.02;;;6.93;;
76447;SDS011;65284;51.040;13.722;2023-06-22T12:10:43;9.60;;;6.70;;
76447;SDS011;65284;51.040;13.722;2023-06-22T12:13:10;8.45;;;6.90;;
76447;SDS011;65284;51.040;13.722;2023-06-22T12:15:36;9.18;;;6.00;;
76447;SDS011;65284;51.040;13.722;2023-06-22T12:18:02;8.82;;;6.50;;
76447;SDS011;65284;51.040;13.722;2023-06-22T12:20:29;8.02;;;6.57;;
76447;SDS011;65284;51.040;13.722;2023-06-22T12:22:56;9.18;;;6.40;;
76447;SDS011;65284;51.040;13.722;2023-06-22T12:25:24;8.48;;;6.80;;
76447;SDS011;65284;51.040;13.722;2023-06-22T12:27:51;8.80;;;6.40;;
76447;SDS011;65284;51.040;13.722;2023-06-22T12:30:17;10.35;;;6.20;;
76447;SDS011;65284;51.040;13.722;2023-06-22T12:32:43;10.68;;;7.13;;
76447;SDS011;65284;51.040;13.722;2023-06-22T12:35:10;8.45;;;6.40;;
76447;SDS011;65284;51.040;13.722;2023-06-22T12:37:40;8.25;;;6.43;;
76447;SDS011;65284;51.040;13.722;2023-06-22T12:40:08;7.65;;;6.20;;
76447;SDS011;65284;51.040;13.722;2023-06-22T12:42:36;8.25;;;6.93;;
76447;SDS011;65284;51.040;13.722;2023-06-22T12:45:02;8.13;;;6.45;;
76447;SDS011;65284;51.040;13.722;2023-06-22T12:47:29;7.88;;;6.60;;
76447;SDS011;65284;51.040;13.722;2023-06-22T12:49:55;9.73;;;6.40;;
76447;SDS011;65284;51.040;13.722;2023-06-22T12:52:22;11.05;;;7.25;;
76447;SDS011;65284;51.040;13.722;2023-06-22T12:54:48;9.38;;;6.70;;
76447;SDS011;65284;51.040;13.722;2023-06-22T12:57:21;8.63;;;6.70;;
76447;SDS011;65284;51.040;13.722;2023-06-22T12:59:47;10.18;;;7.40;;
76447;SDS011;65284;51.040;13.722;2023-06-22T13:02:14;10.10;;;6.75;;
76447;SDS011;65284;51.040;13.722;2023-06-22T13:04:40;8.38;;;6.28;;
76447;SDS011;65284;51.040;13.722;2023-06-22T13:07:07;8.40;;;6.53;;
76447;SDS011;65284;51.040;13.722;2023-06-22T13:09:48;7.60;;;6.45;;
76447;SDS011;65284;51.040;13.722;2023-06-22T13:12:19;11.32;;;7.57;;
76447;SDS011;65284;51.040;13.722;2023-06-22T13:14:46;15.13;;;12.05;;
76447;SDS011;65284;51.040;13.722;2023-06-22T13:17:13;9.48;;;6.10;;
76447;SDS011;65284;51.040;13.722;2023-06-22T13:19:40;9.82;;;6.78;;
76447;SDS011;65284;51.040;13.722;2023-06-22T13:24:56;8.93;;;6.55;;
76447;SDS011;65284;51.040;13.722;2023-06-22T13:27:23;11.50;;;6.95;;
76447;SDS011;65284;51.040;13.722;2023-06-22T13:29:50;8.43;;;6.75;;
76447;SDS011;65284;51.040;13.722;2023-06-22T13:32:17;9.32;;;6.85;;
76447;SDS011;65284;51.040;13.722;2023-06-22T13:34:43;10.38;;;6.88;;
76447;SDS011;65284;51.040;13.722;2023-06-22T13:37:09;11.75;;;6.43;;
76447;SDS011;65284;51.040;13.722;2023-06-22T13:39:36;9.10;;;6.80;;
76447;SDS011;65284;51.040;13.722;2023-06-22T13:42:02;8.10;;;6.22;;
76447;SDS011;65284;51.040;13.722;2023-06-22T13:44:29;7.53;;;6.07;;
76447;SDS011;65284;51.040;13.722;2023-06-22T13:46:55;7.95;;;6.25;;
76447;SDS011;65284;51.040;13.722;2023-06-22T13:49:22;7.50;;;6.15;;
76447;SDS011;65284;51.040;13.722;2023-06-22T13:51:48;8.35;;;6.18;;
76447;SDS011;65284;51.040;13.722;2023-06-22T13:54:15;9.43;;;6.60;;
76447;SDS011;65284;51.040;13.722;2023-06-22T13:56:55;9.48;;;6.10;;
76447;SDS011;65284;51.040;13.722;2023-06-22T13:59:22;8.68;;;6.43;;
76447;SDS011;65284;51.040;13.722;2023-06-22T14:01:48;9.30;;;6.40;;
76447;SDS011;65284;51.040;13.722;2023-06-22T14:04:15;11.02;;;6.88;;
76447;SDS011;65284;51.040;13.722;2023-06-22T14:06:41;8.77;;;6.35;;
76447;SDS011;65284;51.040;13.722;2023-06-22T14:09:08;10.00;;;6.68;;
76447;SDS011;65284;51.040;13.722;2023-06-22T14:11:34;8.30;;;6.22;;
76447;SDS011;65284;51.040;13.722;2023-06-22T14:14:00;8.98;;;6.43;;
76447;SDS011;65284;51.040;13.722;2023-06-22T14:16:27;8.43;;;6.45;;
76447;SDS011;65284;51.040;13.722;2023-06-22T14:18:53;8.20;;;6.45;;
76447;SDS011;65284;51.040;13.722;2023-06-22T14:21:23;9.38;;;6.32;;
76447;SDS011;65284;51.040;13.722;2023-06-22T14:23:50;9.13;;;6.43;;
76447;SDS011;65284;51.040;13.722;2023-06-22T14:26:16;9.75;;;6.20;;
76447;SDS011;65284;51.040;13.722;2023-06-22T14:28:46;8.40;;;5.93;;
76447;SDS011;65284;51.040;13.722;2023-06-22T14:31:14;9.60;;;6.43;;
76447;SDS011;65284;51.040;13.722;2023-06-22T14:33:44;7.88;;;6.20;;
76447;SDS011;65284;51.040;13.722;2023-06-22T14:36:12;9.27;;;6.68;;
76447;SDS011;65284;51.040;13.722;2023-06-22T14:38:40;7.72;;;6.45;;
76447;SDS011;65284;51.040;13.722;2023-06-22T14:41:06;9.20;;;6.68;;